KOLM METAR and TAF | Updated Today

KOLM METAR

Olympia Regional Airport

Observation time: 34 min. ago

KOLM 011554Z 00000KT 10SM CLR M01/M04 A3016 RMK AO2 SLP214 T10111039

Need help? Read our tutorial on how to read METARs or read the parsed version below.

Olympia Regional Airport (KOLM) METAR

  • Weather conditions on Wed, 01 Feb 2023 15:54:00 +0000 (34 min. ago):
  • Present conditions: Dry
  • Clouds: Clear skies
  • Visibility: 16093 meters
  • Wind: Calm
  • Temperature: -1 celsius
  • Dew point: -4 celsius
  • Pressure: 30.16 inHg
  • Remarks: AO2 SLP214 T10111039


Useful to know...

KOLM TAF

Olympia Regional Airport

KOLM 011134Z 0112/0212 00000KT P6SM OVC150 FM012000 VRB03KT P6SM BKN250 FM021000 00000KT 1SM BR BKN002
Observation time: 4:54 hr. ago
Need help? Read our tutorial on how to read TAFs or read the parsed version below.

Parsed version of TAF for Olympia Regional Airport (KOLM)

  • From 01 February at 12:00 UTC, to day 02 of the month at 12:00 UTC
  • Clouds: Overcast sky at 4572 meters
  • From day 1 of the month at 20:00 UTC
  • Clouds: Broken sky at 7620 meters
  • Wind: Variable at 3
  • From day 2 of the month at 10:00 UTC
  • Clouds: Broken sky at 61 meters
  • Visibility: 1609 meters
  • Other: Mist